LLHA/HFA METAR and TAF weather

Enter ICAO airport designator
Station Type Date Time Source
LLHA METAR 2022/01/29 10:50 UTC NOAA

LLHA 291050Z 22004KT 9999 FEW040 15/07 Q1021 RMK BKN060


Station Type Date Time Source
LLHA Decoded METAR 2022/01/29 10:50 UTC NOAA

Sde-Haifa Haifa, Israel (LLHA) 32-48N 035-02E 8M
Jan 29, 2022 - 05:50 AM EST / 2022.01.29 1050 UTC
Wind: from the SW (220 degrees) at 5 MPH (4 KT):0
Visibility: greater than 7 mile(s):0
Sky conditions: mostly clear
Temperature: 59 F (15 C)
Dew Point: 44 F (7 C)
Relative Humidity: 58%
Pressure (altimeter): 30.15 in. Hg (1021 hPa)
ob: LLHA 291050Z 22004KT 9999 FEW040 15/07 Q1021 RMK BKN060
cycle: 11

Station Type Date Time Source
LLHA TAF 2022/01/29 06:00 UTC NOAA

TAF LLHA 290510Z 2906/3006 14007KT 9999 FEW020 SCT040
TEMPO 2906/2909 24015KT 7000 RA FEW020TCU BKN030
FM290900 23010KT 9999 SCT035 PROB40
TEMPO 2909/2915 24015KT 7000 RA FEW020TCU BKN030
BECMG 2915/2917 13006KT FEW040 TX15/2911Z TN08/3003Z

Example: see airport list